createdAt,value
2023-01-18T00:00:00.000Z,4.28
2023-01-18T00:15:00.000Z,4.12
2023-01-18T00:30:00.000Z,4
2023-01-18T00:45:00.000Z,4
2023-01-18T01:00:00.000Z,3.88
2023-01-18T01:15:00.000Z,3.58
2023-01-18T01:30:00.000Z,3.45
2023-01-18T01:45:00.000Z,3.43
2023-01-18T02:00:00.000Z,3.51
2023-01-18T02:15:00.000Z,3.63
2023-01-18T02:30:00.000Z,3.61
2023-01-18T02:45:00.000Z,3.57
2023-01-18T03:00:00.000Z,3.6
2023-01-18T03:15:00.000Z,3.71
2023-01-18T03:30:00.000Z,3.77
2023-01-18T03:45:00.000Z,3.65
2023-01-18T04:00:00.000Z,3.71
2023-01-18T04:15:00.000Z,3.69
2023-01-18T04:30:00.000Z,3.85
2023-01-18T04:45:00.000Z,3.85
2023-01-18T05:00:00.000Z,3.86
2023-01-18T05:15:00.000Z,3.89
2023-01-18T05:30:00.000Z,3.94
2023-01-18T05:45:00.000Z,4
2023-01-18T06:00:00.000Z,4.09
2023-01-18T06:15:00.000Z,4.2
2023-01-18T06:30:00.000Z,4
2023-01-18T06:45:00.000Z,3.82
2023-01-18T07:00:00.000Z,3.56
2023-01-18T07:15:00.000Z,3.27
2023-01-18T07:30:00.000Z,3.19
2023-01-18T07:45:00.000Z,3.28
2023-01-18T08:00:00.000Z,3.21
2023-01-18T08:15:00.000Z,3.11
2023-01-18T08:30:00.000Z,3.19
2023-01-18T08:45:00.000Z,3.39
2023-01-18T09:00:00.000Z,3.74
2023-01-18T09:15:00.000Z,3.93
2023-01-18T09:30:00.000Z,4.5
2023-01-18T09:45:00.000Z,4.85
2023-01-18T10:00:00.000Z,5.17
2023-01-18T10:15:00.000Z,5.18
2023-01-18T10:30:00.000Z,5.69
2023-01-18T10:45:00.000Z,5.95
2023-01-18T11:00:00.000Z,6.08
2023-01-18T11:15:00.000Z,6.03
2023-01-18T11:30:00.000Z,6.06
2023-01-18T11:45:00.000Z,6.37
2023-01-18T12:00:00.000Z,6.7
2023-01-18T12:15:00.000Z,7.35
2023-01-18T12:30:00.000Z,7.66
2023-01-18T12:45:00.000Z,7.32
2023-01-18T13:00:00.000Z,7.37
2023-01-18T13:15:00.000Z,7.27
2023-01-18T13:30:00.000Z,7.27
2023-01-18T13:45:00.000Z,7.38
2023-01-18T14:00:00.000Z,7.45
2023-01-18T14:15:00.000Z,7.28
2023-01-18T14:30:00.000Z,6.99
2023-01-18T14:45:00.000Z,7.1
2023-01-18T15:00:00.000Z,6.83
2023-01-18T15:15:00.000Z,6.21
2023-01-18T15:30:00.000Z,5.96
2023-01-18T15:45:00.000Z,5.78
2023-01-18T16:00:00.000Z,5.33
2023-01-18T16:15:00.000Z,4.6
2023-01-18T16:30:00.000Z,4.04
2023-01-18T16:45:00.000Z,3.72
2023-01-18T17:00:00.000Z,3.32
2023-01-18T17:15:00.000Z,3.15
2023-01-18T17:30:00.000Z,2.99
2023-01-18T17:45:00.000Z,3.24
2023-01-18T18:00:00.000Z,3.16
2023-01-18T18:15:00.000Z,3.03
2023-01-18T18:30:00.000Z,3
2023-01-18T18:45:00.000Z,2.94
2023-01-18T19:00:00.000Z,3.06
2023-01-18T19:15:00.000Z,3.22
2023-01-18T19:30:00.000Z,3.24
2023-01-18T19:45:00.000Z,3.28
2023-01-18T20:00:00.000Z,3.31
2023-01-18T20:15:00.000Z,3.28
2023-01-18T20:30:00.000Z,3.25
2023-01-18T20:45:00.000Z,3.18
2023-01-18T21:00:00.000Z,3.15
2023-01-18T21:15:00.000Z,3.05
2023-01-18T21:30:00.000Z,2.95
2023-01-18T21:45:00.000Z,3
2023-01-18T22:00:00.000Z,3.01
2023-01-18T22:15:00.000Z,3.19
2023-01-18T22:30:00.000Z,3.53
2023-01-18T22:45:00.000Z,3.11
2023-01-18T23:00:00.000Z,3.01
2023-01-18T23:15:00.000Z,3
2023-01-18T23:30:00.000Z,3.05
2023-01-18T23:45:00.000Z,3
